Data for 09/25/2007

Time Sea-Level Adjusted Pressure Absolute Pressure Temperature Relative Humidity Dew Point   
(mb) (inHg) (mb) (inHg) (C) (F) (%) (C) (F)
00:05 1023 30.21 852 25.16 5.6 42 73 1.2 34.1
00:10 1023 30.21 852 25.16 5.7 42.2 73 1.1 34
00:15 1023 30.21 852 25.16 5.8 42.4 73 1.4 34.4
00:20 1023 30.21 852 25.16 5.8 42.5 73 1.3 34.3
00:25 1023 30.21 852 25.16 5.9 42.5 72 1.3 34.3
00:30 1023 30.21 852 25.16 5.9 42.6 72 1.2 34.2
00:35 1023 30.21 852 25.16 5.6 42.1 76 1.6 35
00:40 1023 30.21 852 25.16 5.2 41.3 78 1.6 35
00:45 1023 30.21 852 25.16 5.1 41.1 77 1.4 34.5
00:50 1023 30.21 852 25.16 5.1 41.2 78 1.5 34.7
00:55 1022 30.18 852 25.16 4.9 40.9 78 1.5 34.7
01:00 1022 30.18 852 25.16 4.9 40.8 78 1.3 34.4
01:05 1022 30.18 852 25.16 4.9 40.7 78 1.3 34.3
01:10 1022 30.18 852 25.16 4.7 40.5 77 1.1 33.9
01:15 1022 30.18 852 25.16 4.7 40.5 77 1.1 33.9
01:20 1022 30.18 852 25.16 4.7 40.5 76 0.8 33.5
01:25 1022 30.18 852 25.16 4.9 40.8 74 0.7 33.3
01:30 1022 30.18 852 25.16 4.9 40.9 74 0.7 33.3
01:35 1022 30.18 852 25.16 4.9 40.8 75 0.8 33.4
01:40 1022 30.18 852 25.16 4.9 40.8 77 1.1 34
01:45 1022 30.18 851 25.13 4.5 40.1 79 1.2 34.1
01:50 1022 30.18 851 25.13 4.4 39.9 77 0.8 33.5
01:55 1022 30.18 851 25.13 4.5 40 76 0.7 33.2
02:00 1022 30.18 852 25.16 4.5 40.1 76 0.7 33.3
02:05 1022 30.18 852 25.16 4.4 39.9 77 0.7 33.2
02:10 1022 30.18 852 25.16 4.3 39.7 76 0.4 32.7
02:15 1022 30.18 852 25.16 4.5 40.1 74 0.3 32.5
02:20 1022 30.18 852 25.16 4.6 40.3 74 0.4 32.7
02:25 1022 30.18 852 25.16 4.6 40.3 73 0.3 32.5
02:30 1022 30.18 852 25.16 4.7 40.4 74 0.4 32.7
02:35 1022 30.18 852 25.16 4.6 40.3 73 0.2 32.4
02:40 1022 30.18 852 25.16 4.7 40.4 73 0.2 32.4
02:45 1022 30.18 852 25.16 4.7 40.4 73 0.3 32.5
02:50 1022 30.18 852 25.16 4.6 40.3 73 0.1 32.2
02:55 1022 30.18 852 25.16 4.6 40.3 73 0.3 32.5
03:00 1022 30.18 851 25.13 4.6 40.2 74 0.3 32.5
03:05 1022 30.18 851 25.13 4.5 40 74 0.2 32.4
03:10 1022 30.18 851 25.13 4.4 39.9 74 0.3 32.5
03:15 1022 30.18 851 25.13 4.3 39.8 74 0.2 32.3
03:20 1022 30.18 851 25.13 4.4 39.9 73 -0.1 31.8
03:25 1022 30.18 851 25.13 4.6 40.2 72 0 32
03:30 1022 30.18 851 25.13 4.6 40.3 71 -0.1 31.8
03:35 1022 30.18 851 25.13 4.7 40.5 72 0 32.1
03:40 1022 30.18 851 25.13 4.8 40.6 70 -0.2 31.6
03:45 1022 30.18 851 25.13 4.8 40.7 70 -0.1 31.8
03:50 1022 30.18 851 25.13 4.7 40.5 70 -0.3 31.5
03:55 1022 30.18 851 25.13 4.8 40.6 70 -0.3 31.5
04:00 1022 30.18 851 25.13 4.6 40.3 70 -0.4 31.2
04:05 1022 30.18 851 25.13 4.2 39.6 72 -0.5 31.2
04:10 1022 30.18 851 25.13 3.9 39.1 72 -0.7 30.7
04:15 1022 30.18 851 25.13 3.8 38.9 72 -0.7 30.7
04:20 1022 30.18 851 25.13 3.6 38.5 72 -0.9 30.4
04:25 1022 30.18 851 25.13 3.4 38.2 72 -1.2 29.9
04:30 1022 30.18 851 25.13 3.6 38.6 70 -1.2 29.8
04:35 1022 30.18 851 25.13 3.9 39.1 69 -1.3 29.6
04:40 1022 30.18 851 25.13 4.1 39.5 68 -1.3 29.7
04:45 1022 30.18 851 25.13 4 39.3 69 -1.1 30
04:50 1022 30.18 851 25.13 3.9 39 68 -1.5 29.3
04:55 1022 30.18 851 25.13 4.2 39.5 65 -1.8 28.8
05:00 1022 30.18 851 25.13 4.4 39.9 66 -1.5 29.4
05:05 1022 30.18 851 25.13 4.3 39.7 62 -2.3 27.8
05:10 1022 30.18 851 25.13 4.7 40.5 62 -1.8 28.7
05:15 1022 30.18 851 25.13 4.6 40.3 63 -1.9 28.6
05:20 1022 30.18 851 25.13 4.6 40.3 60 -2.4 27.7
05:25 1022 30.18 851 25.13 5 41 59 -2.3 27.9
05:30 1022 30.18 851 25.13 5.1 41.2 58 -2.4 27.7
05:35 1022 30.18 851 25.13 5.1 41.1 60 -2.1 28.2
05:40 1022 30.18 851 25.13 4.8 40.6 62 -1.9 28.5
05:45 1022 30.18 851 25.13 4.5 40.1 63 -2 28.4
05:50 1022 30.18 851 25.13 4.4 40 63 -2 28.4
05:55 1022 30.18 851 25.13 4.3 39.7 64 -1.9 28.6
06:00 1022 30.18 851 25.13 4.1 39.4 66 -1.7 28.9
06:05 1022 30.18 851 25.13 3.9 39 68 -1.5 29.3
06:10 1022 30.18 851 25.13 3.6 38.6 69 -1.4 29.4
06:15 1022 30.18 851 25.13 3.3 38 69 -1.8 28.8
06:20 1022 30.18 851 25.13 3.3 37.9 70 -1.7 29
06:25 1022 30.18 851 25.13 3.2 37.7 69 -2 28.5
06:30 1022 30.18 851 25.13 3.4 38.1 69 -1.8 28.7
06:35 1022 30.18 851 25.13 3.4 38.1 68 -1.9 28.6
06:40 1022 30.18 851 25.13 3.3 38 67 -2.2 28
06:45 1022 30.18 851 25.13 3.3 37.9 68 -2.1 28.3
06:50 1022 30.18 851 25.13 3.1 37.6 71 -1.7 28.9
06:55 1022 30.18 851 25.13 2.8 37 71 -1.9 28.6
07:00 1022 30.18 851 25.13 2.8 37 68 -2.5 27.5
07:05 1022 30.18 851 25.13 2.9 37.2 66 -2.7 27.1
07:10 1022 30.18 851 25.13 3.2 37.7 67 -2.4 27.7
07:15 1022 30.18 851 25.13 3.5 38.2 67 -2 28.3
07:20 1022 30.18 851 25.13 3.5 38.4 67 -2 28.5
07:25 1022 30.18 851 25.13 3.3 37.9 69 -1.8 28.7
07:30 1022 30.18 851 25.13 3 37.3 72 -1.6 29.2
07:35 1022 30.18 851 25.13 2.7 36.9 70 -2.1 28.2
07:40 1022 30.18 851 25.13 3.4 38 65 -2.6 27.4
07:45 1022 30.18 852 25.16 4.1 39.4 64 -2 28.5
07:50 1022 30.18 852 25.16 4.5 40 63 -2 28.3
07:55 1022 30.18 852 25.16 4.4 40 65 -1.5 29.3
08:00 1022 30.18 852 25.16 3.8 38.8 65 -2.1 28.2
08:05 1022 30.18 852 25.16 3.9 38.9 64 -2.3 27.9
08:10 1023 30.21 852 25.16 4.1 39.5 64 -2 28.5
08:15 1023 30.21 852 25.16 4.2 39.5 66 -1.6 29.1
08:20 1023 30.21 852 25.16 4.3 39.7 67 -1.4 29.4
08:25 1023 30.21 852 25.16 4.3 39.8 64 -1.8 28.7
08:30 1023 30.21 852 25.16 4.8 40.7 63 -1.7 28.9
08:35 1023 30.21 852 25.16 4.9 40.9 62 -1.7 29
08:40 1023 30.21 852 25.16 5.3 41.5 60 -1.9 28.5
08:45 1023 30.21 852 25.16 5.2 41.4 62 -1.5 29.3
08:50 1023 30.21 852 25.16 5 41 64 -1.3 29.6
08:55 1023 30.21 852 25.16 5.1 41.1 61 -1.9 28.7
09:00 1023 30.21 852 25.16 5.4 41.8 61 -1.5 29.3
09:05 1023 30.21 852 25.16 5.6 42.1 59 -1.7 28.9
09:10 1023 30.21 852 25.16 6.2 43.2 53 -2.6 27.4
09:15 1023 30.21 852 25.16 6.8 44.2 51 -2.6 27.3
09:20 1023 30.21 852 25.16 7.2 44.9 52 -2.1 28.3
09:25 1023 30.21 852 25.16 7.3 45.2 51 -2.1 28.2
09:30 1023 30.21 852 25.16 7.5 45.5 50 -2.2 28
09:35 1023 30.21 852 25.16 7.9 46.3 49 -2 28.4
09:40 1023 30.21 852 25.16 8 46.5 50 -1.6 29.1
09:45 1023 30.21 852 25.16 8.1 46.7 51 -1.4 29.4
09:50 1023 30.21 852 25.16 8.1 46.6 51 -1.4 29.5
09:55 1023 30.21 852 25.16 8.5 47.3 50 -1.3 29.7
10:00 1023 30.21 852 25.16 8.5 47.3 51 -1.1 30
10:05 1023 30.21 852 25.16 8.5 47.2 52 -0.9 30.4
10:10 1023 30.21 852 25.16 8.5 47.3 52 -0.9 30.4
10:15 1023 30.21 852 25.16 8.8 47.9 49 -1.3 29.6
10:20 1023 30.21 852 25.16 9.1 48.3 47 -1.6 29.2
10:25 1023 30.21 852 25.16 9.4 48.9 45 -1.8 28.7
10:30 1023 30.21 852 25.16 10 50 45 -1.2 29.8
10:35 1023 30.21 852 25.16 10.2 50.4 43 -1.9 28.7
10:40 1023 30.21 852 25.16 10.4 50.6 41 -2.2 28.1
10:45 1023 30.21 852 25.16 10.5 50.8 42 -1.9 28.6
10:50 1023 30.21 852 25.16 10.9 51.7 39 -2.4 27.7
10:55 1023 30.21 852 25.16 10.9 51.6 39 -2.5 27.5
11:00 1023 30.21 852 25.16 11.4 52.5 38 -2.3 27.9
11:05 1023 30.21 852 25.16 12 53.5 38 -1.7 28.9
11:10 1023 30.21 852 25.16 12.3 54.2 35 -2.7 27.1
11:15 1023 30.21 852 25.16 12.4 54.4 35 -2.7 27.2
11:20 1023 30.21 852 25.16 12.2 54 37 -1.9 28.6
11:25 1022 30.18 852 25.16 12.2 53.9 38 -1.5 29.2
11:30 1022 30.18 852 25.16 12 53.7 35 -2.8 26.9
11:35 1022 30.18 852 25.16 13.4 56.1 32 -3 26.7
11:40 1022 30.18 852 25.16 13.1 55.6 33 -2.9 26.8
11:45 1022 30.18 851 25.13 13.3 56 32 -3 26.5
11:50 1022 30.18 851 25.13 13.6 56.4 31 -3 26.6
11:55 1022 30.18 851 25.13 14.3 57.7 32 -2 28.4
12:00 1022 30.18 851 25.13 14.5 58.1 30 -2.7 27.1
12:05 1022 30.18 851 25.13 14.4 57.9 31 -2.3 27.9
12:10 1022 30.18 851 25.13 13.5 56.4 33 -2.4 27.8
12:15 1022 30.18 851 25.13 13.7 56.6 32 -2.5 27.5
12:20 1022 30.18 851 25.13 14 57.2 33 -2 28.4
12:25 1022 30.18 851 25.13 14.2 57.5 31 -2.7 27.2
12:30 1022 30.18 851 25.13 14.1 57.4 31 -2.5 27.4
12:35 1022 30.18 851 25.13 14 57.2 31 -2.6 27.3
12:40 1022 30.18 851 25.13 14.3 57.7 31 -2.5 27.5
12:45 1022 30.18 851 25.13 14.8 58.7 29 -2.9 26.9
12:50 1021 30.15 851 25.13 14.9 58.7 30 -2.5 27.6
12:55 1021 30.15 851 25.13 15.4 59.7 28 -2.7 27.1
13:00 1021 30.15 851 25.13 15.2 59.4 28 -2.9 26.8
13:05 1021 30.15 850 25.1 15.2 59.4 28 -3.1 26.4
13:10 1021 30.15 850 25.1 15.1 59.2 28 -3.1 26.4
13:15 1021 30.15 850 25.1 15.6 60 28 -2.8 27
13:20 1021 30.15 850 25.1 15.7 60.3 26 -3.6 25.6
13:25 1021 30.15 850 25.1 15.2 59.3 27 -3.6 25.6
13:30 1021 30.15 850 25.1 16 60.8 25 -3.7 25.4
13:35 1021 30.15 850 25.1 17.2 62.9 24 -3.6 25.5
13:40 1021 30.15 850 25.1 17 62.6 24 -3.5 25.6
13:45 1021 30.15 850 25.1 16.4 61.6 27 -2.4 27.6
13:50 1021 30.15 850 25.1 16.8 62.2 23 -4.2 24.4
13:55 1021 30.15 850 25.1 16.9 62.4 21 -5.3 22.4
14:00 1020 30.12 850 25.1 17.1 62.8 19 -6.9 19.6
14:05 1020 30.12 849 25.07 16.4 61.6 21 -6 21.2
14:10 1020 30.12 849 25.07 16.2 61.2 22 -5.7 21.7
14:15 1020 30.12 849 25.07 16.2 61.1 23 -4.9 23.1
14:20 1020 30.12 849 25.07 16.1 60.9 22 -5.3 22.5
14:25 1020 30.12 849 25.07 16 60.8 21 -6 21.2
14:30 1020 30.12 849 25.07 15.8 60.5 24 -4.8 23.3
14:35 1020 30.12 849 25.07 15.8 60.4 23 -5.2 22.6
14:40 1020 30.12 849 25.07 15.7 60.3 25 -3.9 25
14:45 1020 30.12 849 25.07 15.6 60.2 25 -4.1 24.6
14:50 1020 30.12 849 25.07 15.9 60.6 26 -3.5 25.7
14:55 1020 30.12 849 25.07 15.9 60.6 26 -3.4 25.9
15:00 1020 30.12 849 25.07 15.7 60.3 27 -3.3 26.1
15:05 1020 30.12 849 25.07 15.7 60.2 25 -4.1 24.7
15:10 1020 30.12 849 25.07 16.2 61.2 24 -4.2 24.5
15:15 1020 30.12 849 25.07 16.2 61.2 24 -4.3 24.3
15:20 1020 30.12 849 25.07 15.8 60.5 23 -5.1 22.9
15:25 1020 30.12 849 25.07 15.8 60.4 24 -4.7 23.5
15:30 1020 30.12 849 25.07 15.7 60.2 25 -4.3 24.3
15:35 1020 30.12 849 25.07 15.5 59.9 24 -4.7 23.6
15:40 1019 30.09 849 25.07 15.5 60 24 -5 23
15:45 1019 30.09 849 25.07 15.3 59.6 26 -4.2 24.5
15:50 1019 30.09 849 25.07 15 59.1 26 -4.2 24.5
15:55 1019 30.09 848 25.04 15.1 59.3 26 -4.1 24.6
16:00 1019 30.09 848 25.04 15.4 59.7 26 -4 24.8
16:05 1019 30.09 848 25.04 15.4 59.8 27 -3.5 25.7
16:10 1019 30.09 848 25.04 15.4 59.7 27 -3.5 25.6
16:15 1019 30.09 849 25.07 15.7 60.3 25 -3.9 24.9
16:20 1019 30.09 849 25.07 16.2 61.2 24 -4.2 24.4
16:25 1019 30.09 849 25.07 16.3 61.4 24 -4.1 24.7
16:30 1019 30.09 848 25.04 16.3 61.4 25 -3.8 25.2
16:35 1019 30.09 848 25.04 16 60.8 26 -3.6 25.6
16:40 1019 30.09 848 25.04 16.1 61 25 -4 24.9
16:45 1019 30.09 848 25.04 16.3 61.4 25 -3.7 25.3
16:50 1019 30.09 848 25.04 16.4 61.5 25 -3.6 25.6
16:55 1019 30.09 848 25.04 16.1 61 25 -4 24.8
17:00 1019 30.09 848 25.04 15.8 60.5 26 -3.7 25.3
17:05 1019 30.09 848 25.04 16.1 61 25 -3.7 25.4
17:10 1019 30.09 848 25.04 16.1 61 24 -4.1 24.6
17:15 1019 30.09 848 25.04 16.3 61.3 24 -4.2 24.5
17:20 1019 30.09 848 25.04 16.3 61.3 26 -3.4 25.9
17:25 1019 30.09 848 25.04 16.4 61.5 25 -3.5 25.7
17:30 1019 30.09 848 25.04 16.4 61.6 24 -4 24.7
17:35 1019 30.09 848 25.04 16.3 61.3 24 -4.2 24.5
17:40 1019 30.09 848 25.04 16.4 61.5 24 -4.2 24.4
17:45 1019 30.09 848 25.04 16.3 61.3 25 -3.9 25
17:50 1019 30.09 848 25.04 16.1 61 25 -3.8 25.1
17:55 1019 30.09 848 25.04 15.8 60.5 26 -3.6 25.5
18:00 1019 30.09 848 25.04 15.5 60 27 -3.2 26.3
18:05 1019 30.09 848 25.04 15.2 59.4 28 -3.3 26.1
18:10 1019 30.09 848 25.04 15.1 59.2 28 -3 26.5
18:15 1019 30.09 848 25.04 14.8 58.7 30 -2.7 27.2
18:20 1019 30.09 848 25.04 14.7 58.5 30 -2.7 27.1
18:25 1019 30.09 848 25.04 14.8 58.6 30 -2.6 27.2
18:30 1019 30.09 848 25.04 14.6 58.4 31 -2.2 28
18:35 1019 30.09 848 25.04 14.5 58 30 -2.6 27.2
18:40 1019 30.09 848 25.04 14.5 58 31 -2.2 28
18:45 1019 30.09 848 25.04 14.4 57.9 32 -2.2 28
18:50 1019 30.09 848 25.04 14.4 57.9 33 -1.8 28.8
18:55 1019 30.09 848 25.04 14.3 57.8 34 -1.4 29.6
19:00 1019 30.09 848 25.04 14.2 57.5 34 -1.5 29.2
19:05 1019 30.09 848 25.04 13.9 56.9 35 -1.3 29.7
19:10 1019 30.09 848 25.04 13.5 56.2 36 -1.4 29.5
19:15 1019 30.09 848 25.04 13.3 55.9 35 -1.7 28.9
19:20 1019 30.09 848 25.04 13.4 56 35 -1.7 28.9
19:25 1019 30.09 848 25.04 13.3 55.9 35 -1.7 29
19:30 1019 30.09 848 25.04 13.2 55.8 36 -1.6 29.1
19:35 1019 30.09 849 25.07 13.1 55.6 37 -1.3 29.7
19:40 1019 30.09 849 25.07 13.1 55.5 36 -1.5 29.3
19:45 1019 30.09 849 25.07 13 55.5 37 -1.1 30
19:50 1019 30.09 849 25.07 12.9 55.1 39 -0.8 30.5
19:55 1019 30.09 849 25.07 12.7 54.9 38 -1.2 29.9
20:00 1019 30.09 849 25.07 12.7 54.8 38 -1.1 29.9
20:05 1020 30.12 849 25.07 12.6 54.8 39 -0.9 30.3
20:10 1020 30.12 849 25.07 12.5 54.4 41 -0.5 31.1
20:15 1020 30.12 849 25.07 12.2 54 41 -0.7 30.7
20:20 1020 30.12 849 25.07 12.1 53.7 41 -0.7 30.8
20:25 1020 30.12 849 25.07 12 53.6 41 -0.8 30.5
20:30 1020 30.12 849 25.07 12.1 53.7 40 -0.9 30.4
20:35 1020 30.12 849 25.07 12 53.6 41 -0.7 30.7
20:40 1020 30.12 849 25.07 11.9 53.4 42 -0.6 30.9
20:45 1020 30.12 849 25.07 11.9 53.3 41 -0.8 30.6
20:50 1020 30.12 849 25.07 11.8 53.2 41 -0.8 30.5
20:55 1020 30.12 849 25.07 11.8 53.3 41 -0.9 30.4
21:00 1020 30.12 849 25.07 11.8 53.3 42 -0.8 30.6
21:05 1020 30.12 849 25.07 11.8 53.2 42 -0.7 30.8
21:10 1020 30.12 849 25.07 11.8 53.2 42 -0.6 30.9
21:15 1020 30.12 849 25.07 11.8 53.2 42 -0.6 30.9
21:20 1020 30.12 849 25.07 11.8 53.3 43 -0.4 31.3
21:25 1020 30.12 849 25.07 11.9 53.5 45 0.3 32.5
21:30 1020 30.12 849 25.07 11.9 53.3 46 0.7 33.2
21:35 1020 30.12 849 25.07 11.7 53 46 0.4 32.8
21:40 1020 30.12 849 25.07 11.6 52.9 41 -1 30.1
21:45 1020 30.12 849 25.07 12 53.6 41 -0.9 30.3
21:50 1020 30.12 849 25.07 12.2 54 42 -0.4 31.4
21:55 1020 30.12 849 25.07 12.3 54.1 41 -0.5 31
22:00 1020 30.12 849 25.07 12.2 54 41 -0.5 31.1
22:05 1020 30.12 850 25.1 12.2 53.9 40 -0.8 30.5
22:10 1020 30.12 850 25.1 12.3 54.1 38 -1.4 29.4
22:15 1020 30.12 850 25.1 12.4 54.3 39 -1 30.2
22:20 1021 30.15 850 25.1 12.3 54.2 39 -1.2 29.8
22:25 1020 30.12 850 25.1 12.3 54.2 39 -1.1 30.1
22:30 1020 30.12 850 25.1 12.4 54.2 40 -1 30.3
22:35 1020 30.12 850 25.1 12.3 54.2 39 -1.1 30
22:40 1021 30.15 850 25.1 12.3 54.1 39 -1.2 29.8
22:45 1021 30.15 850 25.1 12.3 54.1 39 -1.1 29.9
22:50 1021 30.15 850 25.1 12.2 54 39 -1.2 29.9
22:55 1021 30.15 850 25.1 12.1 53.8 39 -1.2 29.8
23:00 1021 30.15 850 25.1 12.1 53.7 40 -1.2 29.8
23:05 1021 30.15 850 25.1 12 53.6 40 -1 30.3
23:10 1021 30.15 850 25.1 11.8 53.2 42 -0.7 30.7
23:15 1021 30.15 850 25.1 11.5 52.6 43 -0.7 30.7
23:20 1021 30.15 850 25.1 11.2 52.2 44 -0.7 30.8
23:25 1021 30.15 850 25.1 11.1 51.9 44 -0.6 31
23:30 1021 30.15 850 25.1 11 51.8 45 -0.4 31.3
23:35 1021 30.15 850 25.1 10.9 51.5 45 -0.5 31
23:40 1021 30.15 850 25.1 10.8 51.4 46 -0.4 31.4
23:45 1021 30.15 850 25.1 10.7 51.2 46 -0.3 31.4
23:50 1021 30.15 850 25.1 10.6 51.1 47 -0.3 31.5
23:55 1021 30.15 850 25.1 10.7 51.2 45 -0.7 30.7
24:00 1021 30.15 850 25.1 10.9 51.6 43 -1.1 30